Northern Highway — 3EVE6 — position and weather

sailwx.info

Track history (hours):
 
Tides and Currents Weather Stations Pressure Air Temp Water Temp Dewpoint Dewpoint Depression Visibility Wind Speed Wind Dir Waves Ship Positions

Northern Highway

Last reported at 2017-Jan-11 09:14 UTC. Time now 2017-Jan-19 06:34 UTC.
Position S 04°56' E 010°52'.

Length 188 m; draft 7.1 m.

Type: Cargo ship. MMSI: 371608000.

Date/timePositionNaut miles runAvg speedWind from/ knotsBaromVisibWave heightAir tempDewpointWater temp
2017-Jan-11 09:14S 04°56' E 010°52'1116.3
2017-Jan-11 08:32S 05°05' E 010°59'1616.1
2017-Jan-11 07:33S 05°18' E 011°08'1616.2
2017-Jan-11 06:33S 05°32' E 011°17'  
2017-Jan-03 22:33S 30°18' E 030°56'1514.9
2017-Jan-03 21:33S 30°05' E 031°05'1313.4
2017-Jan-03 20:33S 29°52' E 031°09'6 5.6
2017-Jan-03 19:33S 29°52' E 031°02'0 0.0
2017-Jan-03 18:33S 29°52' E 031°02'0 0.0
2017-Jan-03 17:33S 29°52' E 031°02'0 0.0
2017-Jan-03 16:33S 29°52' E 031°02'0 0.0
2017-Jan-03 15:33S 29°52' E 031°02'0 0.0
2017-Jan-03 14:33S 29°52' E 031°02'0 0.0
2017-Jan-03 13:33S 29°52' E 031°02'0 0.0
2017-Jan-03 12:33S 29°52' E 031°02'0 0.0
2017-Jan-03 11:33S 29°52' E 031°02'0 0.0
2017-Jan-03 10:33S 29°52' E 031°02'0 0.0
2017-Jan-03 09:33S 29°52' E 031°02'0 0.0
2017-Jan-03 08:33S 29°52' E 031°02'0 0.0
2017-Jan-03 07:33S 29°52' E 031°02'0 0.0
2017-Jan-03 06:33S 29°52' E 031°02'0 0.0
2017-Jan-03 05:33S 29°52' E 031°02'0 0.0
2017-Jan-03 04:33S 29°52' E 031°02'0 0.0
2017-Jan-03 03:30S 29°52' E 031°02'0 0.0
2017-Jan-03 02:33S 29°52' E 031°02'0 0.0
2017-Jan-03 01:33S 29°52' E 031°02'0 0.0
2017-Jan-03 00:33S 29°52' E 031°02'0 0.0
2017-Jan-02 23:33S 29°52' E 031°02'0 0.0
2017-Jan-02 22:33S 29°52' E 031°02'0 0.0
2017-Jan-02 21:33S 29°52' E 031°02'0 0.0
2017-Jan-02 20:33S 29°52' E 031°02'0 0.0
2017-Jan-02 19:33S 29°52' E 031°02'0 0.0
2017-Jan-02 18:33S 29°52' E 031°02'0 0.0
2017-Jan-02 17:33S 29°52' E 031°02'0 0.0
2017-Jan-02 16:33S 29°52' E 031°02'0 0.0
2017-Jan-02 15:33S 29°52' E 031°02'0 0.0
2017-Jan-02 14:33S 29°52' E 031°02'0 0.0
2017-Jan-02 13:33S 29°52' E 031°02'0 0.0
2017-Jan-02 12:33S 29°52' E 031°02'0 0.0
2017-Jan-02 11:33S 29°52' E 031°02'0 0.0
2017-Jan-02 10:33S 29°52' E 031°02'0 0.0
2017-Jan-02 09:33S 29°52' E 031°02'0 0.0
2017-Jan-02 08:33S 29°52' E 031°02'0 0.0
2017-Jan-02 07:33S 29°52' E 031°02'0 0.0
2017-Jan-02 06:33S 29°52' E 031°02'0 0.0
2017-Jan-02 05:33S 29°52' E 031°02'0 0.0
2017-Jan-02 04:33S 29°52' E 031°02'0 0.0
2017-Jan-02 03:33S 29°52' E 031°02'0 0.0
2017-Jan-02 02:33S 29°52' E 031°02'0 0.0
2017-Jan-02 01:33S 29°52' E 031°02'0 0.0
2017-Jan-02 00:33S 29°52' E 031°02'0 0.0
2017-Jan-01 23:33S 29°52' E 031°02'0 0.0
2017-Jan-01 22:33S 29°52' E 031°02'0 0.0
2017-Jan-01 21:30S 29°52' E 031°02'0 0.0
2017-Jan-01 20:33S 29°52' E 031°02'0 0.0
2017-Jan-01 18:33S 29°52' E 031°02'0 0.0
2017-Jan-01 17:33S 29°52' E 031°02'5 4.7
2017-Jan-01 16:34S 29°49' E 031°06'4 4.2
2017-Jan-01 15:32S 29°46' E 031°10'0 0.0
2017-Jan-01 14:32S 29°46' E 031°10'0 0.0
2017-Jan-01 13:32S 29°46' E 031°10'0 0.0
2017-Jan-01 12:32S 29°46' E 031°10'0 0.0
2017-Jan-01 11:32S 29°46' E 031°10'0 0.0
2017-Jan-01 10:32S 29°46' E 031°10'0 0.0
2017-Jan-01 09:32S 29°46' E 031°10'  
Track history (hours):
 
Tides and Currents Weather Stations Pressure Air Temp Water Temp Dewpoint Dewpoint Depression Visibility Wind Speed Wind Dir Waves Ship Positions

Northern Highway

Last reported at 2017-Jan-11 09:14 UTC. Time now 2017-Jan-19 06:34 UTC.
Position S 04°56' E 010°52'.

Length 188 m; draft 7.1 m.

Type: Cargo ship. MMSI: 371608000.

Date/timePositionNaut miles runAvg speedWind from/ knotsBaromVisibWave heightAir tempDewpointWater temp
2017-Jan-11 09:14S 04°56' E 010°52'1116.3
2017-Jan-11 08:32S 05°05' E 010°59'1616.1
2017-Jan-11 07:33S 05°18' E 011°08'1616.2
2017-Jan-11 06:33S 05°32' E 011°17'  
2017-Jan-03 22:33S 30°18' E 030°56'1514.9
2017-Jan-03 21:33S 30°05' E 031°05'1313.4
2017-Jan-03 20:33S 29°52' E 031°09'6 5.6
2017-Jan-03 19:33S 29°52' E 031°02'0 0.0
2017-Jan-03 18:33S 29°52' E 031°02'0 0.0
2017-Jan-03 17:33S 29°52' E 031°02'0 0.0
2017-Jan-03 16:33S 29°52' E 031°02'0 0.0
2017-Jan-03 15:33S 29°52' E 031°02'0 0.0
2017-Jan-03 14:33S 29°52' E 031°02'0 0.0
2017-Jan-03 13:33S 29°52' E 031°02'0 0.0
2017-Jan-03 12:33S 29°52' E 031°02'0 0.0
2017-Jan-03 11:33S 29°52' E 031°02'0 0.0
2017-Jan-03 10:33S 29°52' E 031°02'0 0.0
2017-Jan-03 09:33S 29°52' E 031°02'0 0.0
2017-Jan-03 08:33S 29°52' E 031°02'0 0.0
2017-Jan-03 07:33S 29°52' E 031°02'0 0.0
2017-Jan-03 06:33S 29°52' E 031°02'0 0.0
2017-Jan-03 05:33S 29°52' E 031°02'0 0.0
2017-Jan-03 04:33S 29°52' E 031°02'0 0.0
2017-Jan-03 03:30S 29°52' E 031°02'0 0.0
2017-Jan-03 02:33S 29°52' E 031°02'0 0.0
2017-Jan-03 01:33S 29°52' E 031°02'0 0.0
2017-Jan-03 00:33S 29°52' E 031°02'0 0.0
2017-Jan-02 23:33S 29°52' E 031°02'0 0.0
2017-Jan-02 22:33S 29°52' E 031°02'0 0.0
2017-Jan-02 21:33S 29°52' E 031°02'0 0.0
2017-Jan-02 20:33S 29°52' E 031°02'0 0.0
2017-Jan-02 19:33S 29°52' E 031°02'0 0.0
2017-Jan-02 18:33S 29°52' E 031°02'0 0.0
2017-Jan-02 17:33S 29°52' E 031°02'0 0.0
2017-Jan-02 16:33S 29°52' E 031°02'0 0.0
2017-Jan-02 15:33S 29°52' E 031°02'0 0.0
2017-Jan-02 14:33S 29°52' E 031°02'0 0.0
2017-Jan-02 13:33S 29°52' E 031°02'0 0.0
2017-Jan-02 12:33S 29°52' E 031°02'0 0.0
2017-Jan-02 11:33S 29°52' E 031°02'0 0.0
2017-Jan-02 10:33S 29°52' E 031°02'0 0.0
2017-Jan-02 09:33S 29°52' E 031°02'0 0.0
2017-Jan-02 08:33S 29°52' E 031°02'0 0.0
2017-Jan-02 07:33S 29°52' E 031°02'0 0.0
2017-Jan-02 06:33S 29°52' E 031°02'0 0.0
2017-Jan-02 05:33S 29°52' E 031°02'0 0.0
2017-Jan-02 04:33S 29°52' E 031°02'0 0.0
2017-Jan-02 03:33S 29°52' E 031°02'0 0.0
2017-Jan-02 02:33S 29°52' E 031°02'0 0.0
2017-Jan-02 01:33S 29°52' E 031°02'0 0.0
2017-Jan-02 00:33S 29°52' E 031°02'0 0.0
2017-Jan-01 23:33S 29°52' E 031°02'0 0.0
2017-Jan-01 22:33S 29°52' E 031°02'0 0.0
2017-Jan-01 21:30S 29°52' E 031°02'0 0.0
2017-Jan-01 20:33S 29°52' E 031°02'0 0.0
2017-Jan-01 18:33S 29°52' E 031°02'0 0.0
2017-Jan-01 17:33S 29°52' E 031°02'5 4.7
2017-Jan-01 16:34S 29°49' E 031°06'4 4.2
2017-Jan-01 15:32S 29°46' E 031°10'0 0.0
2017-Jan-01 14:32S 29°46' E 031°10'0 0.0
2017-Jan-01 13:32S 29°46' E 031°10'0 0.0
2017-Jan-01 12:32S 29°46' E 031°10'0 0.0
2017-Jan-01 11:32S 29°46' E 031°10'0 0.0
2017-Jan-01 10:32S 29°46' E 031°10'0 0.0
2017-Jan-01 09:32S 29°46' E 031°10'  

Dump ship's entire track history